Data for 05/24/2008

Time Sea-Level Adjusted Pressure Absolute Pressure Temperature Relative Humidity Dew Point   
(mb) (inHg) (mb) (inHg) (C) (F) (%) (C) (F)
00:05 1010 29.83 839 24.78 8.3 47 92 7.2 44.9
00:10 1010 29.83 839 24.78 8.4 47 93 7.2 45
00:15 1010 29.83 839 24.78 8.4 47.2 92 7.3 45.1
00:20 1010 29.83 839 24.78 8.4 47.2 92 7.3 45.1
00:25 1010 29.83 839 24.78 8.4 47.2 92 7.2 45
00:30 1010 29.83 839 24.78 8.5 47.3 92 7.3 45.2
00:35 1010 29.83 839 24.78 8.5 47.4 92 7.4 45.3
00:40 1010 29.83 839 24.78 8.5 47.2 93 7.4 45.2
00:45 1010 29.83 839 24.78 8.4 47.2 93 7.4 45.3
00:50 1010 29.83 839 24.78 8.4 47.1 93 7.4 45.3
00:55 1010 29.83 839 24.78 8.4 47.1 94 7.4 45.3
01:00 1010 29.83 839 24.78 8.3 47 93 7.3 45.2
01:05 1010 29.83 839 24.78 8.3 47 93 7.3 45.1
01:10 1010 29.83 839 24.78 8.3 46.9 93 7.2 44.9
01:15 1010 29.83 839 24.78 8.3 47 92 7.1 44.8
01:20 1010 29.83 839 24.78 8.4 47.1 92 7.1 44.9
01:25 1010 29.83 839 24.78 8.4 47 92 7.1 44.8
01:30 1010 29.83 839 24.78 8.4 47 92 7.1 44.7
01:35 1010 29.83 839 24.78 8.3 47 92 7 44.7
01:40 1010 29.83 839 24.78 8.3 46.9 92 7.1 44.7
01:45 1010 29.83 839 24.78 8.2 46.7 93 7 44.7
01:50 1010 29.83 839 24.78 8.1 46.6 93 7 44.6
01:55 1010 29.83 839 24.78 8 46.4 93 7 44.5
02:00 1010 29.83 839 24.78 7.9 46.3 93 6.9 44.4
02:05 1010 29.83 839 24.78 7.8 46.1 94 6.9 44.4
02:10 1010 29.83 839 24.78 7.7 45.9 94 6.8 44.2
02:15 1010 29.83 839 24.78 7.7 45.8 94 6.8 44.2
02:20 1010 29.83 839 24.78 7.6 45.6 95 6.8 44.2
02:25 1010 29.83 839 24.78 7.5 45.4 95 6.7 44.1
02:30 1010 29.83 839 24.78 7.4 45.4 95 6.7 44.1
02:35 1010 29.83 839 24.78 7.4 45.3 96 6.7 44.1
02:40 1010 29.83 839 24.78 7.1 44.8 93 6.1 42.9
02:45 1010 29.83 839 24.78 6.4 43.5 95 5.6 42
02:50 1010 29.83 839 24.78 6.4 43.6 93 5.4 41.6
02:55 1010 29.83 839 24.78 6.3 43.4 92 5.1 41.1
03:00 1010 29.83 839 24.78 6.3 43.3 91 5 40.9
03:05 1010 29.83 839 24.78 6.5 43.7 90 5 41.1
03:10 1010 29.83 839 24.78 6.5 43.6 89 4.8 40.7
03:15 1010 29.83 839 24.78 6.3 43.3 90 4.7 40.5
03:20 1010 29.83 839 24.78 6.2 43.2 90 4.7 40.4
03:25 1010 29.83 839 24.78 6.4 43.6 89 4.8 40.6
03:30 1010 29.83 839 24.78 6.6 43.8 89 4.9 40.8
03:35 1010 29.83 839 24.78 6.5 43.7 89 4.9 40.8
03:40 1010 29.83 839 24.78 6.6 43.8 89 4.9 40.9
03:45 1010 29.83 839 24.78 6.8 44.2 89 5.1 41.1
03:50 1010 29.83 839 24.78 6.8 44.2 89 5 41.1
03:55 1010 29.83 839 24.78 6.5 43.6 90 4.9 40.9
04:00 1009 29.8 839 24.78 6.2 43.1 91 4.8 40.6
04:05 1009 29.8 839 24.78 6.3 43.3 91 4.9 40.8
04:10 1009 29.8 838 24.75 6.5 43.7 90 4.9 40.9
04:15 1009 29.8 838 24.75 6.3 43.4 90 4.8 40.7
04:20 1009 29.8 838 24.75 6.3 43.4 90 4.8 40.6
04:25 1009 29.8 838 24.75 6.4 43.4 90 4.8 40.7
04:30 1009 29.8 838 24.75 6.4 43.6 90 4.9 40.8
04:35 1009 29.8 838 24.75 6.5 43.6 90 4.9 40.9
04:40 1009 29.8 838 24.75 6.5 43.8 89 4.8 40.7
04:45 1009 29.8 838 24.75 6.5 43.7 89 4.8 40.6
04:50 1009 29.8 838 24.75 6.5 43.7 89 4.8 40.7
04:55 1009 29.8 838 24.75 6.6 43.9 89 4.9 40.7
05:00 1009 29.8 839 24.78 6.6 43.9 88 4.8 40.7
05:05 1009 29.8 839 24.78 6.5 43.7 89 4.8 40.6
05:10 1009 29.8 839 24.78 6.5 43.7 89 4.8 40.6
05:15 1009 29.8 839 24.78 6.4 43.6 89 4.8 40.7
05:20 1010 29.83 839 24.78 6.6 43.9 89 4.9 40.8
05:25 1010 29.83 839 24.78 6.6 43.9 89 4.9 40.9
05:30 1010 29.83 839 24.78 6.6 43.9 89 5 40.9
05:35 1010 29.83 839 24.78 6.7 44.1 89 5 41.1
05:40 1010 29.83 839 24.78 6.6 44 89 5 40.9
05:45 1010 29.83 839 24.78 6.6 43.8 89 4.9 40.9
05:50 1010 29.83 839 24.78 6.5 43.7 90 4.9 40.8
05:55 1010 29.83 839 24.78 6.5 43.7 90 4.9 40.8
06:00 1010 29.83 839 24.78 6.4 43.5 90 4.8 40.7
06:05 1010 29.83 839 24.78 6.3 43.4 90 4.8 40.6
06:10 1010 29.83 839 24.78 6.3 43.4 90 4.8 40.6
06:15 1010 29.83 839 24.78 6.5 43.7 90 4.9 40.8
06:20 1010 29.83 839 24.78 6.7 44.1 89 5.1 41.2
06:25 1010 29.83 839 24.78 6.9 44.4 89 5.2 41.4
06:30 1010 29.83 839 24.78 6.8 44.3 89 5.2 41.3
06:35 1010 29.83 839 24.78 6.8 44.2 89 5.1 41.2
06:40 1010 29.83 839 24.78 6.8 44.2 89 5.2 41.3
06:45 1010 29.83 839 24.78 6.7 44.1 90 5.2 41.3
06:50 1010 29.83 839 24.78 6.7 44.1 90 5.2 41.3
06:55 1010 29.83 839 24.78 6.8 44.2 90 5.2 41.4
07:00 1010 29.83 839 24.78 6.9 44.4 90 5.3 41.5
07:05 1010 29.83 839 24.78 7 44.5 89 5.3 41.6
07:10 1010 29.83 839 24.78 6.9 44.4 90 5.4 41.7
07:15 1010 29.83 839 24.78 6.8 44.3 91 5.5 41.9
07:20 1010 29.83 839 24.78 6.8 44.2 92 5.6 42.1
07:25 1010 29.83 839 24.78 6.8 44.2 93 5.7 42.3
07:30 1010 29.83 839 24.78 6.8 44.2 94 5.8 42.5
07:35 1010 29.83 839 24.78 7 44.6 94 6.1 42.9
07:40 1010 29.83 839 24.78 7.1 44.9 94 6.3 43.3
07:45 1010 29.83 839 24.78 7.3 45.1 94 6.4 43.5
07:50 1010 29.83 839 24.78 7.3 45.2 95 6.5 43.7
07:55 1009 29.8 839 24.78 7.3 45.2 95 6.6 43.8
08:00 1009 29.8 838 24.75 7.4 45.3 95 6.7 44
08:05 1009 29.8 838 24.75 7.4 45.4 96 6.8 44.2
08:10 1009 29.8 839 24.78 7.5 45.4 96 6.9 44.4
08:15 1009 29.8 838 24.75 7.4 45.4 97 6.9 44.5
08:20 1009 29.8 838 24.75 7.4 45.4 97 7 44.6
08:25 1009 29.8 838 24.75 7.5 45.4 97 7 44.6
08:30 1009 29.8 838 24.75 7.4 45.4 97 7 44.5
08:35 1009 29.8 838 24.75 7.4 45.3 97 6.9 44.5
08:40 1009 29.8 838 24.75 7.4 45.2 97 6.9 44.4
08:45 1009 29.8 838 24.75 7.4 45.2 97 6.8 44.3
08:50 1009 29.8 838 24.75 7.4 45.2 97 6.9 44.4
08:55 1009 29.8 838 24.75 7.4 45.3 97 7 44.6
09:00 1009 29.8 838 24.75 7.5 45.4 98 7.1 44.8
09:05 1009 29.8 838 24.75 7.5 45.4 98 7.1 44.9
09:10 1009 29.8 838 24.75 7.3 45.2 98 7.1 44.7
09:15 1009 29.8 838 24.75 7.3 45.1 99 7 44.7
09:20 1009 29.8 838 24.75 7.3 45.1 99 7.1 44.7
09:25 1009 29.8 838 24.75 7.3 45.1 99 7.1 44.8
09:30 1009 29.8 838 24.75 7.3 45.1 99 7.2 44.9
09:35 1009 29.8 838 24.75 7.3 45.2 99 7.2 44.9
09:40 1009 29.8 838 24.75 7.3 45.1 99 7.2 45
09:45 1009 29.8 838 24.75 7.3 45.1 100 7.2 45
09:50 1009 29.8 838 24.75 7.3 45.2 163 14.6 58.3
09:55 1009 29.8 838 24.75 7.2 45 163 14.5 58.2
10:00 1009 29.8 838 24.75 7.2 44.9 164 14.5 58.1
10:05 1009 29.8 838 24.75 7.2 44.9 163 14.5 58.1
10:10 1009 29.8 838 24.75 7.2 45 164 14.5 58.2
10:15 1009 29.8 838 24.75 7.2 45 164 14.5 58.2
10:20 1009 29.8 838 24.75 7.3 45.1 164 14.6 58.3
10:25 1009 29.8 838 24.75 7.3 45.1 164 14.6 58.2
10:30 1009 29.8 838 24.75 7.2 45 164 14.5 58.2
10:35 1009 29.8 838 24.75 7.2 45 164 14.5 58.2
10:40 1009 29.8 838 24.75 7.2 45 164 14.6 58.2
10:45 1009 29.8 838 24.75 7.3 45.1 164 14.6 58.3
10:50 1009 29.8 838 24.75 7.4 45.3 164 14.7 58.5
10:55 1009 29.8 838 24.75 7.4 45.4 164 14.8 58.6
11:00 1009 29.8 838 24.75 7.5 45.4 164 14.8 58.6
11:05 1009 29.8 838 24.75 7.4 45.3 164 14.7 58.5
11:10 1009 29.8 838 24.75 7.5 45.5 164 14.8 58.7
11:15 1009 29.8 838 24.75 7.5 45.5 164 14.8 58.7
11:20 1009 29.8 838 24.75 7.5 45.5 164 14.8 58.7
11:25 1009 29.8 838 24.75 7.5 45.4 164 14.8 58.7
11:30 1009 29.8 838 24.75 7.6 45.6 164 14.9 58.9
11:35 1009 29.8 838 24.75 7.8 46 164 15.1 59.2
11:40 1009 29.8 838 24.75 7.9 46.1 164 15.2 59.4
11:45 1009 29.8 838 24.75 8 46.4 164 15.4 59.7
11:50 1009 29.8 838 24.75 8 46.4 164 15.4 59.6
11:55 1009 29.8 838 24.75 8 46.4 164 15.4 59.7
12:00 1009 29.8 838 24.75 8.1 46.5 164 15.5 59.8
12:05 1009 29.8 838 24.75 7.9 46.3 164 15.3 59.5
12:10 1009 29.8 838 24.75 7.9 46.2 164 15.3 59.5
12:15 1009 29.8 838 24.75 7.9 46.3 164 15.3 59.5
12:20 1009 29.8 838 24.75 7.9 46.1 164 15.2 59.4
12:25 1009 29.8 838 24.75 8 46.3 164 15.3 59.6
12:30 1009 29.8 838 24.75 8 46.4 164 15.4 59.7
12:35 1009 29.8 838 24.75 8 46.4 164 15.4 59.7
12:40 1009 29.8 838 24.75 8 46.3 164 15.3 59.6
12:45 1009 29.8 838 24.75 8 46.4 164 15.4 59.6
12:50 1009 29.8 838 24.75 8.1 46.5 164 15.5 59.8
12:55 1009 29.8 838 24.75 8.1 46.6 164 15.5 59.9
13:00 1009 29.8 838 24.75 8.2 46.8 164 15.6 60.1
13:05 1009 29.8 838 24.75 8.2 46.7 164 15.6 60
13:10 1009 29.8 838 24.75 8.1 46.6 164 15.5 59.9
13:15 1009 29.8 838 24.75 8.3 46.9 164 15.6 60.2
13:20 1009 29.8 838 24.75 8.4 47.1 164 15.8 60.4
13:25 1009 29.8 838 24.75 8.4 47.2 164 15.8 60.5
13:30 1009 29.8 838 24.75 8.5 47.3 164 15.9 60.6
13:35 1009 29.8 838 24.75 8.6 47.4 164 16 60.7
13:40 1009 29.8 838 24.75 8.7 47.6 164 16.1 60.9
13:45 1009 29.8 838 24.75 8.6 47.4 164 16 60.7
13:50 1009 29.8 838 24.75 8.7 47.6 164 16.1 61
13:55 1009 29.8 838 24.75 8.8 47.8 164 16.2 61.1
14:00 1009 29.8 838 24.75 8.7 47.6 164 16.1 60.9
14:05 1009 29.8 838 24.75 8.7 47.6 164 16.1 61
14:10 1009 29.8 838 24.75 8.7 47.7 164 16.2 61.1
14:15 1009 29.8 838 24.75 8.7 47.6 164 16.1 60.9
14:20 1009 29.8 838 24.75 8.8 47.8 96 8.2 46.7
14:25 1009 29.8 838 24.75 8.7 47.7 96 8.1 46.6
14:30 1009 29.8 838 24.75 8.6 47.4 95 7.8 46.1
14:35 1009 29.8 838 24.75 8.6 47.5 95 7.9 46.2
14:40 1009 29.8 838 24.75 8.7 47.7 95 8 46.3
14:45 1009 29.8 838 24.75 8.9 47.9 96 8.2 46.7
14:50 1009 29.8 838 24.75 9 48.1 95 8.2 46.7
14:55 1009 29.8 838 24.75 9 48.2 94 8 46.5
15:00 1009 29.8 838 24.75 9.1 48.3 94 8.2 46.8
15:05 1009 29.8 838 24.75 9.2 48.6 94 8.3 46.9
15:10 1009 29.8 838 24.75 9.2 48.5 94 8.3 46.9
15:15 1009 29.8 838 24.75 9.1 48.3 94 8.2 46.7
15:20 1009 29.8 838 24.75 9 48.2 95 8.2 46.7
15:25 1009 29.8 838 24.75 8.8 47.8 95 8.1 46.5
15:30 1009 29.8 838 24.75 8.3 46.9 97 7.8 46
15:35 1009 29.8 838 24.75 7.7 45.8 97 7.3 45.1
15:40 1009 29.8 838 24.75 7 44.6 98 6.8 44.2
15:45 1009 29.8 838 24.75 6.9 44.3 100 6.8 44.3
15:50 1009 29.8 838 24.75 6.9 44.5 100 6.9 44.5
15:55 1009 29.8 838 24.75 6.8 44.2 100 6.8 44.2
16:00 1009 29.8 838 24.75 6.7 44 100 6.7 44
16:05 1009 29.8 838 24.75 6.7 44.1 100 6.7 44.1
16:10 1009 29.8 838 24.75 7 44.7 100 7 44.7
16:15 1009 29.8 838 24.75 7.2 45 100 7.2 45
16:20 1009 29.8 838 24.75 7.3 45.1 100 7.3 45.1
16:25 1009 29.8 838 24.75 7.5 45.4 100 7.4 45.4
16:30 1009 29.8 838 24.75 7.7 45.9 100 7.7 45.9
16:35 1009 29.8 838 24.75 7.9 46.2 163 15.2 59.4
16:40 1009 29.8 838 24.75 8.1 46.6 163 15.5 59.8
16:45 1009 29.8 838 24.75 8.3 47 163 15.7 60.3
16:50 1009 29.8 838 24.75 8.5 47.3 163 15.9 60.6
16:55 1009 29.8 839 24.78 8.5 47.3 163 15.9 60.6
17:00 1009 29.8 839 24.78 8.5 47.3 164 15.9 60.6
17:05 1009 29.8 839 24.78 8.5 47.4 164 15.9 60.7
17:10 1009 29.8 839 24.78 8.6 47.5 164 16 60.8
17:15 1010 29.83 839 24.78 8.4 47 164 15.8 60.4
17:20 1010 29.83 839 24.78 6.8 44.2 164 14.1 57.4
17:25 1010 29.83 839 24.78 6.2 43.2 164 13.5 56.3
17:30 1010 29.83 839 24.78 6.2 43.2 164 13.5 56.4
17:35 1010 29.83 839 24.78 6.4 43.5 164 13.7 56.6
17:40 1010 29.83 839 24.78 6.4 43.6 164 13.7 56.7
17:45 1010 29.83 839 24.78 6.6 43.9 164 13.9 57.1
17:50 1010 29.83 839 24.78 6.8 44.2 164 14.1 57.4
17:55 1010 29.83 839 24.78 7 44.5 164 14.3 57.7
18:00 1010 29.83 839 24.78 7.1 44.7 164 14.4 57.9
18:05 1010 29.83 840 24.81 7.2 44.9 164 14.5 58.1
18:10 1010 29.83 840 24.81 7.2 45 164 14.6 58.2
18:15 1010 29.83 840 24.81 7.2 45 164 14.6 58.2
18:20 1010 29.83 840 24.81 7.2 45 164 14.5 58.2
18:25 1011 29.85 840 24.81 7.2 44.9 164 14.5 58.1
18:30 1011 29.85 840 24.81 7.2 45 164 14.5 58.2
18:35 1011 29.85 840 24.81 7.2 45 164 14.6 58.2
18:40 1011 29.85 840 24.81 7.1 44.9 164 14.5 58.1
18:45 1011 29.85 840 24.81 7.2 44.9 164 14.5 58.2
18:50 1011 29.85 840 24.81 7.2 44.9 164 14.5 58.1
18:55 1011 29.85 840 24.81 7.2 45 164 14.6 58.2
19:00 1011 29.85 840 24.81 7.3 45.1 164 14.6 58.3
19:05 1011 29.85 840 24.81 7.3 45.1 164 14.6 58.3
19:10 1011 29.85 840 24.81 7.3 45.2 164 14.7 58.4
19:15 1011 29.85 840 24.81 7.4 45.2 164 14.7 58.5
19:20 1011 29.85 840 24.81 7.4 45.3 164 14.7 58.5
19:25 1011 29.85 840 24.81 7.5 45.4 164 14.8 58.7
19:30 1011 29.85 840 24.81 7.4 45.4 164 14.8 58.6
19:35 1011 29.85 840 24.81 7.3 45.1 164 14.6 58.4
19:40 1011 29.85 840 24.81 7.2 45 164 14.5 58.2
19:45 1011 29.85 841 24.83 7.1 44.7 164 14.4 57.9
19:50 1011 29.85 841 24.83 7 44.5 164 14.3 57.7
19:55 1011 29.85 841 24.83 6.9 44.4 164 14.2 57.6
20:00 1011 29.85 841 24.83 6.8 44.3 164 14.1 57.5
20:05 1012 29.88 841 24.83 6.8 44.2 164 14.1 57.4
20:10 1012 29.88 841 24.83 6.8 44.2 164 14.1 57.4
20:15 1012 29.88 841 24.83 6.7 44.1 164 14 57.3
20:20 1012 29.88 841 24.83 6.7 44.1 164 14 57.3
20:25 1012 29.88 841 24.83 6.7 44.1 164 14 57.2
20:30 1012 29.88 841 24.83 6.7 44 164 14 57.2
20:35 1012 29.88 841 24.83 6.6 43.9 164 13.9 57
20:40 1012 29.88 841 24.83 6.5 43.7 164 13.8 56.9
20:45 1012 29.88 841 24.83 6.5 43.7 164 13.8 56.8
20:50 1012 29.88 841 24.83 6.5 43.6 164 13.8 56.8
20:55 1012 29.88 841 24.83 6.5 43.7 164 13.8 56.9
21:00 1012 29.88 841 24.83 6.6 43.8 164 13.9 57
21:05 1012 29.88 842 24.86 6.6 43.8 164 13.9 57
21:10 1012 29.88 842 24.86 6.5 43.7 164 13.8 56.9
21:15 1012 29.88 842 24.86 6.4 43.6 164 13.7 56.7
21:20 1012 29.88 842 24.86 6.3 43.4 164 13.6 56.5
21:25 1013 29.91 842 24.86 6.4 43.5 164 13.7 56.7
21:30 1013 29.91 842 24.86 6.4 43.5 164 13.7 56.7
21:35 1013 29.91 842 24.86 6.4 43.5 164 13.7 56.7
21:40 1013 29.91 842 24.86 6.4 43.6 164 13.7 56.7
21:45 1013 29.91 842 24.86 6.4 43.6 164 13.7 56.7
21:50 1013 29.91 842 24.86 6.4 43.5 164 13.7 56.7
21:55 1013 29.91 842 24.86 6.4 43.5 164 13.7 56.7
22:00 1013 29.91 842 24.86 6.4 43.5 164 13.7 56.7
22:05 1013 29.91 842 24.86 6.4 43.6 164 13.7 56.7
22:10 1013 29.91 842 24.86 6.5 43.7 164 13.8 56.9
22:15 1013 29.91 843 24.89 6.6 43.9 164 13.9 57
22:20 1013 29.91 843 24.89 6.6 43.9 164 13.9 57.1
22:25 1013 29.91 843 24.89 6.6 43.9 164 13.9 57.1
22:30 1014 29.94 843 24.89 6.6 43.9 164 13.9 57.1
22:35 1014 29.94 843 24.89 6.5 43.7 164 13.8 56.8
22:40 1014 29.94 843 24.89 6.4 43.6 164 13.7 56.7
22:45 1014 29.94 843 24.89 6.4 43.5 164 13.7 56.6
22:50 1014 29.94 843 24.89 6.4 43.4 164 13.7 56.6
22:55 1014 29.94 843 24.89 6.3 43.4 164 13.6 56.5
23:00 1014 29.94 843 24.89 6.3 43.3 164 13.5 56.4
23:05 1014 29.94 843 24.89 6.2 43.2 164 13.5 56.4
23:10 1014 29.94 843 24.89 6.2 43.2 164 13.5 56.3
23:15 1014 29.94 843 24.89 6.2 43.1 164 13.5 56.3
23:20 1014 29.94 843 24.89 6.2 43.1 164 13.5 56.2
23:25 1014 29.94 843 24.89 6.1 42.9 164 13.4 56.1
23:30 1014 29.94 843 24.89 6.1 43 164 13.4 56.1
23:35 1014 29.94 843 24.89 6.1 43 164 13.4 56.2
23:40 1014 29.94 843 24.89 6.1 43 164 13.4 56.1
23:45 1014 29.94 843 24.89 6.1 43 164 13.4 56.2
23:50 1014 29.94 843 24.89 6.1 43 164 13.4 56.1
23:55 1014 29.94 843 24.89 6.2 43.1 164 13.4 56.2
24:00 1014 29.94 843 24.89 6.2 43.1 164 13.5 56.2